METAR Data
IDs: Format: Raw Decoded Include TAF

Data at: 1019 UTC 26 Sep 2018

KEUL 260956Z AUTO 11003KT 10SM CLR 04/01 A3024 RMK AO2 SLP236 T00440011
KEUL 260856Z AUTO 03004KT 10SM CLR 06/02 A3023 RMK AO2 SLP235 T00560017 51004
KEUL 260756Z AUTO 00000KT 10SM CLR 07/02 A3023 RMK AO2 SLP233 T00720022
KEUL 260656Z AUTO 00000KT 10SM CLR 08/01 A3023 RMK AO2 SLP236 T00780011 402170033
KEUL 260556Z AUTO 00000KT 10SM CLR 08/01 A3022 RMK AO2 SLP232 T00830011 10206 20078 53005
KEUL 260456Z AUTO 02003KT 10SM CLR 09/00 A3021 RMK AO2 SLP231 T00890000
KEUL 260356Z AUTO 00000KT 10SM CLR 12/00 A3020 RMK AO2 SLP228 T01170000
KEUL 260256Z AUTO 00000KT 10SM CLR 15/M01 A3020 RMK AO2 SLP228 T01501006 55000
KEUL 260156Z AUTO 22003KT 10SM CLR 18/M02 A3020 RMK AO2 SLP227 T01781017
KEUL 260056Z AUTO 27006KT 10SM CLR 19/M02 A3020 RMK AO2 SLP223 T01941017
KEUL 252356Z AUTO 00000KT 10SM CLR 21/M01 A3020 RMK AO2 SLP223 T02061006 10217 20150 56011
KEUL 252256Z AUTO 23005KT 10SM CLR 21/M01 A3021 RMK AO2 SLP225 T02061006
KEUL 252156Z AUTO 28003KT 10SM CLR 21/M03 A3022 RMK AO2 SLP228 T02061028
KEUL 252056Z AUTO 16004KT 10SM CLR 20/M01 A3024 RMK AO2 SLP235 T02001006 58016
KEUL 251956Z AUTO 00000KT 10SM CLR 19/01 A3026 RMK AO2 SLP244 T01940011
KEUL 251856Z AUTO 00000KT 10SM CLR 17/01 A3028 RMK AO2 SLP250 T01670011
KEUL 251756Z AUTO 00000KT 9SM CLR 15/01 A3029 RMK AO2 SLP255 T01500011 10150 20033 50001
KEUL 251656Z AUTO 00000KT 10SM CLR 13/02 A3030 RMK AO2 SLP256 T01280017
KEUL 251556Z AUTO 29003KT 10SM CLR 11/02 A3030 RMK AO2 SLP258 T01060022
KEUL 251456Z AUTO 10SM CLR 07/02 A3029 RMK AO2 SLP257 T00670022 51017 $
KEUL 251356Z AUTO 10SM CLR 04/01 A3027 RMK AO2 SLP252 T00390006 $
KEUL 251256Z AUTO 00000KT 10SM CLR 06/01 A3025 RMK AO2 SLP242 T00560006
KEUL 251156Z AUTO 25004KT 10SM CLR 08/01 A3023 RMK AO2 SLP233 T00780011 10106 20067 53009
KEUL 251056Z AUTO 25005KT 10SM CLR 08/02 A3021 RMK AO2 SLP226 T00780017
KEUL 250956Z AUTO 16003KT 10SM CLR 08/02 A3021 RMK AO2 SLP223 T00780017
KEUL 250856Z AUTO 26007KT 10SM CLR 08/02 A3020 RMK AO2 SLP224 T00830017 51008
KEUL 250756Z AUTO 27007KT 10SM CLR 08/02 A3020 RMK AO2 SLP222 T00830017
KEUL 250656Z AUTO 28009KT 10SM CLR 08/02 A3019 RMK AO2 SLP220 T00830017 402110039
KEUL 250556Z AUTO 26008KT 10SM CLR 10/01 A3018 RMK AO2 SLP216 T01000006 10206 20100 51016
KEUL 250456Z AUTO 25003KT 10SM CLR 13/M01 A3016 RMK AO2 SLP209 T01331006
KEUL 250356Z AUTO 31008KT 10SM CLR 14/M01 A3015 RMK AO2 SLP206 T01441006
KEUL 250256Z AUTO 27006KT 10SM CLR 15/01 A3013 RMK AO2 SLP202 T01500006 53012
KEUL 250156Z AUTO 25006KT 10SM CLR 17/00 A3011 RMK AO2 SLP196 T01720000
KEUL 250056Z AUTO 10SM CLR 19/00 A3010 RMK AO2 SLP188 T01940000 $
KEUL 242356Z AUTO 29010KT 10SM CLR 21/M01 A3009 RMK AO2 SLP186 T02061011 10211 20156 55005
KEUL 242256Z AUTO 10SM CLR 21/M02 A3009 RMK AO2 SLP183 T02061022